Time;durP1;ratioP1;P1;durP2;ratioP2;P2;SDS_P1;SDS_P2;PMS_P1;PMS_P2;Temp;Humidity;BMP_temperature;BMP_pressure;BME280_temperature;BME280_humidity;BME280_pressure;Samples;Min_cycle;Max_cycle;Signal;HPM_P1;HPM_P2
2022/02/16 00:01:49;;;;;;;21.63;13.63;;;8.70;94.00;;;;;;5061859;28;20075;-74
2022/02/16 00:04:15;;;;;;;19.70;14.07;;;8.70;94.00;;;;;;5062433;28;20080;-74
2022/02/16 00:06:41;;;;;;;18.85;13.60;;;8.70;94.00;;;;;;5095604;28;20039;-74
2022/02/16 00:09:06;;;;;;;21.33;11.93;;;8.70;94.00;;;;;;5045132;28;20394;-74
2022/02/16 00:11:32;;;;;;;22.45;12.57;;;8.70;94.00;;;;;;5045966;28;20039;-74
2022/02/16 00:13:58;;;;;;;22.73;12.98;;;8.70;94.00;;;;;;5078410;28;20043;-74
2022/02/16 00:16:23;;;;;;;20.50;11.18;;;8.70;94.00;;;;;;5062541;28;20039;-74
2022/02/16 00:18:49;;;;;;;18.48;11.30;;;8.70;94.00;;;;;;5061716;28;20108;-74
2022/02/16 00:21:15;;;;;;;19.33;10.30;;;8.60;94.00;;;;;;5062657;28;20046;-74
2022/02/16 00:23:41;;;;;;;17.60;9.90;;;8.70;94.00;;;;;;5061903;28;20170;-74
2022/02/16 00:26:07;;;;;;;17.17;10.05;;;8.70;94.00;;;;;;5079014;28;20051;-74
2022/02/16 00:28:32;;;;;;;23.52;11.88;;;8.70;94.00;;;;;;5046210;28;20130;-74
2022/02/16 00:30:58;;;;;;;17.50;9.02;;;8.70;94.00;;;;;;5061771;28;20131;-74
2022/02/16 00:33:24;;;;;;;21.55;8.90;;;8.70;94.00;;;;;;5061925;28;20078;-74
2022/02/16 00:35:49;;;;;;;16.13;8.68;;;8.70;93.90;;;;;;5055174;28;20036;-74
2022/02/16 00:38:15;;;;;;;16.73;9.40;;;8.70;94.00;;;;;;5051710;28;20048;-74
2022/02/16 00:40:41;;;;;;;17.25;9.27;;;8.60;94.00;;;;;;5060254;28;20392;-74
2022/02/16 00:43:07;;;;;;;20.50;11.32;;;8.70;94.00;;;;;;5047913;28;20091;-73
2022/02/16 00:45:33;;;;;;;19.98;11.10;;;8.70;94.00;;;;;;5044190;28;20086;-74
2022/02/16 00:47:59;;;;;;;19.42;12.30;;;8.70;94.00;;;;;;5044974;28;20043;-74
2022/02/16 00:50:25;;;;;;;23.05;12.63;;;8.60;94.00;;;;;;5045463;28;20100;-73
2022/02/16 00:52:51;;;;;;;20.63;13.80;;;8.60;94.00;;;;;;5077930;28;20461;-74
2022/02/16 00:55:17;;;;;;;25.75;14.90;;;8.60;94.00;;;;;;5113316;28;20061;-74
2022/02/16 00:57:42;;;;;;;19.98;14.90;;;8.70;94.00;;;;;;5061135;28;20039;-78
2022/02/16 01:00:09;;;;;;;25.23;16.05;;;8.60;94.00;;;;;;5078302;28;20043;-74
2022/02/16 01:02:34;;;;;;;28.27;15.95;;;8.60;94.00;;;;;;5045126;28;20050;-73
2022/02/16 01:05:00;;;;;;;23.30;14.75;;;8.60;94.00;;;;;;5044186;28;20040;-74
2022/02/16 01:07:26;;;;;;;24.08;14.60;;;8.70;94.00;;;;;;5074863;28;20043;-75
2022/02/16 01:09:51;;;;;;;20.85;13.57;;;8.60;94.00;;;;;;5024449;28;20047;-74
2022/02/16 01:12:17;;;;;;;17.75;12.00;;;8.60;94.00;;;;;;5041614;28;20078;-74
2022/02/16 01:14:43;;;;;;;21.02;12.63;;;8.60;94.00;;;;;;5024919;28;20430;-77
2022/02/16 01:17:08;;;;;;;18.67;11.77;;;8.70;94.00;;;;;;5040988;28;20048;-74
2022/02/16 01:19:34;;;;;;;20.75;12.07;;;8.70;93.90;;;;;;5024830;28;20134;-74
2022/02/16 01:22:00;;;;;;;20.35;12.80;;;8.70;93.90;;;;;;5073963;28;20044;-74
2022/02/16 01:24:25;;;;;;;23.55;11.82;;;8.70;94.00;;;;;;5057637;28;20369;-74
2022/02/16 01:26:51;;;;;;;18.38;11.73;;;8.70;94.00;;;;;;5040818;28;20087;-74
2022/02/16 01:29:17;;;;;;;20.48;12.13;;;8.70;94.00;;;;;;5074489;28;20052;-74
2022/02/16 01:31:42;;;;;;;22.25;12.07;;;8.70;94.00;;;;;;5024749;28;20044;-74
2022/02/16 01:34:08;;;;;;;18.65;12.15;;;8.60;93.90;;;;;;5057288;28;20048;-74
2022/02/16 01:36:34;;;;;;;17.45;11.70;;;8.60;93.90;;;;;;5040967;28;20478;-74
2022/02/16 01:39:00;;;;;;;22.42;12.50;;;8.60;93.90;;;;;;5057203;28;20047;-74
2022/02/16 01:41:26;;;;;;;20.63;12.70;;;8.60;93.90;;;;;;5041220;28;20040;-74
2022/02/16 01:43:52;;;;;;;18.15;12.65;;;8.60;93.90;;;;;;5023917;28;20039;-74
2022/02/16 01:46:18;;;;;;;21.00;14.10;;;8.60;94.00;;;;;;5057260;28;20051;-74
2022/02/16 01:48:44;;;;;;;21.35;13.85;;;8.60;94.00;;;;;;5040988;28;20044;-74
2022/02/16 01:51:10;;;;;;;21.75;13.80;;;8.60;94.00;;;;;;5056747;28;20075;-74
2022/02/16 01:53:36;;;;;;;17.42;13.73;;;8.60;94.00;;;;;;5040819;28;20048;-74
2022/02/16 01:56:02;;;;;;;22.10;15.20;;;8.60;94.00;;;;;;5040531;28;20044;-74
2022/02/16 01:58:28;;;;;;;21.40;14.55;;;8.60;94.00;;;;;;5057229;28;20125;-74
2022/02/16 02:00:55;;;;;;;21.90;15.02;;;8.60;94.00;;;;;;5057287;28;20052;-74
2022/02/16 02:03:21;;;;;;;22.52;15.95;;;8.60;94.00;;;;;;5024360;28;20051;-74
2022/02/16 02:05:50;;;;;;;22.02;16.05;;;8.60;94.00;;;;;;5057315;28;20044;-74
2022/02/16 02:08:16;;;;;;;22.38;16.83;;;8.60;94.00;;;;;;5073919;28;20090;-74
2022/02/16 02:10:45;;;;;;;21.50;16.17;;;8.60;94.10;;;;;;5040889;28;20087;-74
2022/02/16 02:13:11;;;;;;;23.77;17.10;;;8.60;94.10;;;;;;5024666;28;20127;-74
2022/02/16 02:15:36;;;;;;;23.95;17.02;;;8.70;94.10;;;;;;5024255;28;20092;-74
2022/02/16 02:18:02;;;;;;;22.77;17.35;;;8.60;94.10;;;;;;5056882;28;20054;-74
2022/02/16 02:20:30;;;;;;;24.88;17.58;;;8.60;94.10;;;;;;5024467;28;20055;-75
2022/02/16 02:22:56;;;;;;;24.02;18.40;;;8.60;94.50;;;;;;5040375;28;20466;-74
2022/02/16 02:25:22;;;;;;;25.02;19.35;;;8.60;94.20;;;;;;5040830;28;20403;-74
2022/02/16 02:27:48;;;;;;;25.75;18.52;;;8.60;94.20;;;;;;5057603;28;20438;-73
2022/02/16 02:30:14;;;;;;;25.67;18.80;;;8.70;94.20;;;;;;5073786;28;20099;-74
2022/02/16 02:32:44;;;;;;;27.38;19.02;;;8.60;94.20;;;;;;5058765;28;20484;-74
2022/02/16 02:35:11;;;;;;;27.00;19.58;;;8.70;94.30;;;;;;5059263;28;20051;-74
2022/02/16 02:37:40;;;;;;;26.27;18.33;;;8.60;94.20;;;;;;5081292;28;20052;-74
2022/02/16 02:40:07;;;;;;;25.20;18.55;;;8.70;94.30;;;;;;5080383;28;20065;-74
2022/02/16 02:42:36;;;;;;;27.17;19.42;;;8.70;94.30;;;;;;5064573;28;20055;-74
2022/02/16 02:45:03;;;;;;;26.33;19.85;;;8.70;94.30;;;;;;5063394;28;20063;-74
2022/02/16 02:47:29;;;;;;;26.10;19.27;;;8.70;94.40;;;;;;5080949;28;20047;-75
2022/02/16 02:49:55;;;;;;;24.92;19.10;;;8.70;94.40;;;;;;5080812;28;20395;-74
2022/02/16 02:52:20;;;;;;;28.35;19.55;;;8.70;94.40;;;;;;5063832;28;20043;-74
2022/02/16 02:54:46;;;;;;;25.20;19.27;;;8.70;94.40;;;;;;5047643;28;20050;-74
2022/02/16 02:57:12;;;;;;;27.92;19.48;;;8.70;94.40;;;;;;5063473;28;20048;-74
2022/02/16 02:59:38;;;;;;;26.15;18.38;;;8.70;94.40;;;;;;5080728;28;20047;-74
2022/02/16 03:02:04;;;;;;;25.10;18.05;;;8.70;94.40;;;;;;5047016;28;20056;-74
2022/02/16 03:04:29;;;;;;;28.63;19.70;;;8.70;94.40;;;;;;5080283;28;20046;-75
2022/02/16 03:06:55;;;;;;;25.40;17.75;;;8.70;94.50;;;;;;5063505;28;20496;-74
2022/02/16 03:09:21;;;;;;;27.48;18.88;;;8.70;94.50;;;;;;5063075;28;20504;-74
2022/02/16 03:11:46;;;;;;;29.63;18.70;;;8.70;94.60;;;;;;5063416;28;20085;-74
2022/02/16 03:14:12;;;;;;;26.17;17.73;;;8.70;94.60;;;;;;5079842;28;20153;-74
2022/02/16 03:16:38;;;;;;;26.70;17.95;;;8.80;94.60;;;;;;5047381;28;20484;-74
2022/02/16 03:19:05;;;;;;;25.95;18.20;;;8.80;94.60;;;;;;5079768;28;20123;-75
2022/02/16 03:21:31;;;;;;;28.70;19.58;;;8.70;94.60;;;;;;5063571;28;20082;-74
2022/02/16 03:23:56;;;;;;;25.50;17.75;;;8.80;94.60;;;;;;5063726;28;20044;-74
2022/02/16 03:26:22;;;;;;;26.00;17.15;;;8.80;94.70;;;;;;5046382;28;20035;-75
2022/02/16 03:28:48;;;;;;;26.52;18.17;;;8.80;94.70;;;;;;5046952;28;20109;-74
2022/02/16 03:31:14;;;;;;;27.42;18.33;;;8.80;94.70;;;;;;5062883;28;20039;-74
2022/02/16 03:33:40;;;;;;;25.17;17.38;;;8.80;94.70;;;;;;5080030;28;20122;-75
2022/02/16 03:36:05;;;;;;;27.70;17.73;;;8.80;94.70;;;;;;5045868;28;20071;-75
2022/02/16 03:38:31;;;;;;;23.88;16.27;;;8.80;94.70;;;;;;5063640;28;20043;-75
2022/02/16 03:40:57;;;;;;;26.65;17.55;;;8.80;94.70;;;;;;5063316;28;20131;-75
2022/02/16 03:43:23;;;;;;;24.85;16.75;;;8.80;94.60;;;;;;5045738;28;20209;-75
2022/02/16 03:45:48;;;;;;;23.33;16.13;;;8.80;94.70;;;;;;5079341;28;20104;-75
2022/02/16 03:48:14;;;;;;;24.67;16.60;;;8.80;94.70;;;;;;5046062;28;20082;-75
2022/02/16 03:50:40;;;;;;;23.67;16.38;;;8.80;94.70;;;;;;5063132;28;20046;-75
2022/02/16 03:53:05;;;;;;;24.58;15.27;;;8.80;94.70;;;;;;5046289;28;20495;-78
2022/02/16 03:55:31;;;;;;;24.27;15.23;;;8.80;94.80;;;;;;5079362;28;20508;-74
2022/02/16 03:57:57;;;;;;;22.27;13.73;;;8.80;94.70;;;;;;5062626;28;20454;-74
2022/02/16 04:00:23;;;;;;;23.13;14.32;;;8.80;94.70;;;;;;5062056;28;20054;-75
2022/02/16 04:02:49;;;;;;;21.95;13.15;;;8.80;94.70;;;;;;5079690;28;20124;-75
2022/02/16 04:05:14;;;;;;;18.67;12.48;;;8.80;94.70;;;;;;5061704;28;20483;-74
2022/02/16 04:07:40;;;;;;;18.38;11.60;;;8.80;94.70;;;;;;5062468;28;20044;-75
2022/02/16 04:10:06;;;;;;;19.25;12.80;;;8.80;94.70;;;;;;5079459;28;20043;-75
2022/02/16 04:12:32;;;;;;;18.02;11.48;;;8.80;94.70;;;;;;5062272;28;20112;-74
2022/02/16 04:14:57;;;;;;;16.77;11.43;;;8.80;94.80;;;;;;5079359;28;20047;-74
2022/02/16 04:17:23;;;;;;;20.10;11.75;;;8.80;94.80;;;;;;5078141;28;20040;-75
2022/02/16 04:19:49;;;;;;;16.95;10.73;;;8.80;94.80;;;;;;5045917;28;20043;-74
2022/02/16 04:22:16;;;;;;;16.35;10.32;;;8.80;94.80;;;;;;5061998;28;20054;-75
2022/02/16 04:24:43;;;;;;;17.02;11.10;;;8.80;94.80;;;;;;5046305;28;20039;-75
2022/02/16 04:27:09;;;;;;;17.98;10.20;;;8.80;94.80;;;;;;5078524;28;20051;-78
2022/02/16 04:29:34;;;;;;;14.30;10.07;;;8.80;94.80;;;;;;5062033;28;20044;-75
2022/02/16 04:32:00;;;;;;;14.82;10.00;;;8.80;94.80;;;;;;5062434;28;20501;-74
2022/02/16 04:34:26;;;;;;;17.40;9.77;;;8.80;94.80;;;;;;5045036;28;20043;-76
2022/02/16 04:36:51;;;;;;;16.13;10.65;;;8.80;94.90;;;;;;5045761;28;20385;-75
2022/02/16 04:39:17;;;;;;;19.70;10.88;;;8.80;94.90;;;;;;5061342;28;20134;-75
2022/02/16 04:41:43;;;;;;;16.02;11.50;;;8.80;94.90;;;;;;5062129;28;20040;-75
2022/02/16 04:44:09;;;;;;;16.77;12.00;;;8.80;94.90;;;;;;5062118;28;20065;-75
2022/02/16 04:46:34;;;;;;;13.68;10.15;;;8.80;94.90;;;;;;5060866;28;20047;-74
2022/02/16 04:49:00;;;;;;;18.92;11.98;;;8.90;94.90;;;;;;5078634;28;20040;-74
2022/02/16 04:51:26;;;;;;;17.77;12.02;;;8.90;94.90;;;;;;5061439;28;20559;-75
2022/02/16 04:53:51;;;;;;;16.73;11.25;;;8.80;94.90;;;;;;5061383;28;20043;-75
2022/02/16 04:56:18;;;;;;;19.38;12.25;;;8.90;95.30;;;;;;5077977;28;20138;-75
2022/02/16 04:58:44;;;;;;;18.10;14.13;;;8.90;94.90;;;;;;5062144;28;20043;-74
2022/02/16 05:01:10;;;;;;;19.13;13.88;;;8.90;95.00;;;;;;5062036;28;20404;-75
2022/02/16 05:03:35;;;;;;;19.50;13.02;;;8.90;95.00;;;;;;5044671;28;20043;-75
2022/02/16 05:06:01;;;;;;;18.00;13.02;;;8.90;95.00;;;;;;5061495;28;20080;-75
2022/02/16 05:08:27;;;;;;;17.92;12.98;;;8.90;95.00;;;;;;5044572;28;20051;-75
2022/02/16 05:10:52;;;;;;;18.65;12.60;;;8.90;95.10;;;;;;5078242;28;20047;-74
2022/02/16 05:13:18;;;;;;;18.45;12.98;;;8.90;95.00;;;;;;5044473;28;20387;-75
2022/02/16 05:15:44;;;;;;;17.92;13.20;;;9.00;95.10;;;;;;5045019;28;20096;-75
2022/02/16 05:18:09;;;;;;;19.65;14.15;;;8.90;95.10;;;;;;5038756;28;20113;-75
2022/02/16 05:20:35;;;;;;;20.40;14.93;;;8.90;95.20;;;;;;5072184;28;20704;-75
2022/02/16 05:23:04;;;;;;;19.10;13.95;;;9.00;95.20;;;;;;5040396;28;20538;-75
2022/02/16 05:25:30;;;;;;;17.48;13.52;;;9.00;95.30;;;;;;5057599;28;20056;-74
2022/02/16 05:27:56;;;;;;;21.73;15.13;;;9.00;95.60;;;;;;5041302;28;20496;-74
2022/02/16 05:30:21;;;;;;;19.83;13.73;;;9.00;95.40;;;;;;5040965;28;20044;-75
2022/02/16 05:32:47;;;;;;;18.77;14.07;;;9.00;95.40;;;;;;5035442;28;20138;-76
2022/02/16 05:35:13;;;;;;;18.52;13.25;;;9.00;95.30;;;;;;5087047;28;20040;-75
2022/02/16 05:37:39;;;;;;;16.67;13.32;;;9.00;95.30;;;;;;5087550;28;20039;-74
2022/02/16 05:40:06;;;;;;;16.75;13.88;;;9.00;95.30;;;;;;5054165;28;20051;-74
2022/02/16 05:42:31;;;;;;;18.33;14.40;;;9.00;95.30;;;;;;5080211;28;20044;-75
2022/02/16 05:44:57;;;;;;;18.05;13.90;;;9.00;95.30;;;;;;5075553;28;20066;-74
2022/02/16 05:47:23;;;;;;;18.15;13.73;;;9.10;95.40;;;;;;5075880;28;20047;-75
2022/02/16 05:49:48;;;;;;;15.90;13.35;;;9.10;95.40;;;;;;5039306;28;20126;-74
2022/02/16 05:52:14;;;;;;;18.67;14.05;;;9.00;95.40;;;;;;5091740;28;20130;-75
2022/02/16 05:54:40;;;;;;;17.17;14.25;;;9.10;95.40;;;;;;5076958;28;20051;-75
2022/02/16 05:57:06;;;;;;;16.35;13.55;;;9.10;95.40;;;;;;5069294;28;20492;-74
2022/02/16 05:59:31;;;;;;;15.50;12.50;;;9.10;95.40;;;;;;5039875;28;20039;-75
2022/02/16 06:02:03;;;;;;;14.57;12.57;;;9.10;95.40;;;;;;5076406;28;20062;-75
2022/02/16 06:04:31;;;;;;;16.83;12.48;;;9.10;95.40;;;;;;5060467;28;20123;-75
2022/02/16 06:06:57;;;;;;;15.80;11.82;;;9.10;95.40;;;;;;5063271;28;20048;-75
2022/02/16 06:09:22;;;;;;;13.48;10.75;;;9.10;95.40;;;;;;5074720;28;20055;-74
2022/02/16 06:11:48;;;;;;;17.92;10.40;;;9.10;95.40;;;;;;5061191;28;20479;-75
2022/02/16 06:14:14;;;;;;;12.93;10.57;;;9.10;95.40;;;;;;5072594;28;20054;-74
2022/02/16 06:16:39;;;;;;;12.23;9.85;;;9.10;95.40;;;;;;5064324;28;20073;-75
2022/02/16 06:19:05;;;;;;;16.15;9.23;;;9.10;95.40;;;;;;5054044;28;20044;-75
2022/02/16 06:21:31;;;;;;;12.25;9.40;;;9.10;95.40;;;;;;5090372;28;20054;-75
2022/02/16 06:23:57;;;;;;;10.00;8.35;;;9.10;95.50;;;;;;5054746;28;20070;-74
2022/02/16 06:26:22;;;;;;;9.93;7.85;;;9.10;95.50;;;;;;5063860;28;20039;-75
2022/02/16 06:28:48;;;;;;;9.73;7.53;;;9.10;95.60;;;;;;5057105;28;20051;-74
2022/02/16 06:31:14;;;;;;;9.27;7.32;;;9.10;95.60;;;;;;5098053;28;20388;-75
2022/02/16 06:33:39;;;;;;;8.70;6.35;;;9.20;95.60;;;;;;5058220;28;20074;-75
2022/02/16 06:36:05;;;;;;;9.30;6.20;;;9.10;95.60;;;;;;5080897;28;20039;-75
2022/02/16 06:38:31;;;;;;;9.27;6.18;;;9.20;95.60;;;;;;5042615;28;20043;-75
2022/02/16 06:40:57;;;;;;;7.85;6.30;;;9.10;95.60;;;;;;5058080;28;20051;-72
2022/02/16 06:43:22;;;;;;;6.80;5.32;;;9.10;95.60;;;;;;5091171;28;20040;-72
2022/02/16 06:45:48;;;;;;;8.50;5.53;;;9.20;95.70;;;;;;5067486;28;20044;-75
2022/02/16 06:48:14;;;;;;;7.90;5.43;;;9.20;95.70;;;;;;5088375;28;20507;-75
2022/02/16 06:50:39;;;;;;;7.97;5.78;;;9.20;95.90;;;;;;5062239;28;20400;-76
2022/02/16 06:53:06;;;;;;;7.05;5.10;;;9.20;95.70;;;;;;5062266;28;20051;-75
2022/02/16 06:55:33;;;;;;;8.52;5.55;;;9.20;95.80;;;;;;5076040;28;20059;-78
2022/02/16 06:57:58;;;;;;;8.23;5.90;;;9.20;95.80;;;;;;5067198;28;20144;-74
2022/02/16 07:00:24;;;;;;;7.22;5.03;;;9.20;95.90;;;;;;5077612;28;20070;-74
2022/02/16 07:02:50;;;;;;;5.95;4.43;;;9.20;95.90;;;;;;5076518;28;20059;-75
2022/02/16 07:05:16;;;;;;;8.13;4.60;;;9.20;95.90;;;;;;5071183;28;20035;-75
2022/02/16 07:07:41;;;;;;;7.53;4.47;;;9.20;96.00;;;;;;5046351;28;20035;-75
2022/02/16 07:10:08;;;;;;;6.57;4.68;;;9.30;96.00;;;;;;5072389;28;20056;-75
2022/02/16 07:12:36;;;;;;;6.43;4.30;;;9.30;96.00;;;;;;5047143;28;20051;-78
2022/02/16 07:15:01;;;;;;;7.15;4.43;;;9.30;96.10;;;;;;5046278;28;20041;-75
2022/02/16 07:17:27;;;;;;;5.80;3.80;;;9.30;96.10;;;;;;5071632;28;20039;-75
2022/02/16 07:19:53;;;;;;;7.82;4.13;;;9.30;96.10;;;;;;5062704;28;20055;-75
2022/02/16 07:22:19;;;;;;;7.25;4.13;;;9.30;96.10;;;;;;5059186;28;20407;-74
2022/02/16 07:24:44;;;;;;;5.28;3.38;;;9.30;96.20;;;;;;5043025;28;20043;-74
2022/02/16 07:27:10;;;;;;;8.93;4.47;;;9.30;96.30;;;;;;5055039;28;20488;-75
2022/02/16 07:29:36;;;;;;;6.18;3.47;;;9.40;96.30;;;;;;5058174;28;20043;-78
2022/02/16 07:32:02;;;;;;;6.20;3.55;;;9.40;96.30;;;;;;5075119;28;20484;-75
2022/02/16 07:34:30;;;;;;;6.15;3.63;;;9.40;96.40;;;;;;5079176;28;20047;-75
2022/02/16 07:36:56;;;;;;;8.50;4.22;;;9.40;96.40;;;;;;5053052;28;20052;-76
2022/02/16 07:39:27;;;;;;;6.03;4.03;;;9.40;96.40;;;;;;5062837;28;20047;-75
2022/02/16 07:41:54;;;;;;;6.80;4.15;;;9.40;96.50;;;;;;5059367;28;20044;-75
2022/02/16 07:44:19;;;;;;;6.55;3.67;;;9.50;96.50;;;;;;5056503;28;20044;-75
2022/02/16 07:46:45;;;;;;;6.38;4.28;;;9.40;96.50;;;;;;5058770;28;20048;-75
2022/02/16 07:49:11;;;;;;;5.00;3.38;;;9.50;96.60;;;;;;5050025;28;20048;-75
2022/02/16 07:51:36;;;;;;;5.65;3.95;;;9.50;96.60;;;;;;5035805;28;20040;-75
2022/02/16 07:54:02;;;;;;;5.85;3.58;;;9.50;96.60;;;;;;5077294;28;20081;-74
2022/02/16 07:56:28;;;;;;;4.75;3.25;;;9.50;96.60;;;;;;5077146;28;20067;-72
2022/02/16 07:58:53;;;;;;;6.32;3.67;;;9.50;96.60;;;;;;5073908;28;20039;-75
2022/02/16 08:01:19;;;;;;;5.50;4.15;;;9.60;96.80;;;;;;5045942;28;20043;-74
2022/02/16 08:03:47;;;;;;;6.40;3.38;;;9.70;96.90;;;;;;5074431;28;20044;-78
2022/02/16 08:06:14;;;;;;;5.25;3.45;;;9.70;96.80;;;;;;5089354;28;20044;-76
2022/02/16 08:08:40;;;;;;;5.80;3.20;;;9.70;96.80;;;;;;5051216;28;20131;-79
2022/02/16 08:11:06;;;;;;;5.85;3.30;;;9.80;96.80;;;;;;5072473;28;20188;-74
2022/02/16 08:13:31;;;;;;;5.80;3.45;;;9.80;96.90;;;;;;5076021;28;20039;-77
2022/02/16 08:15:57;;;;;;;5.35;2.70;;;9.80;96.90;;;;;;5038265;28;20118;-74
2022/02/16 08:18:24;;;;;;;5.30;3.45;;;9.80;96.90;;;;;;5059061;28;20101;-74
2022/02/16 08:20:50;;;;;;;5.75;3.45;;;9.80;96.90;;;;;;5066500;28;20055;-74
2022/02/16 08:23:15;;;;;;;5.50;2.90;;;9.90;97.00;;;;;;5076097;28;20074;-74
2022/02/16 08:25:41;;;;;;;5.47;3.03;;;9.90;97.00;;;;;;5094593;28;20476;-74
2022/02/16 08:28:07;;;;;;;4.63;3.00;;;9.90;97.00;;;;;;5058977;28;20040;-73
2022/02/16 08:30:33;;;;;;;4.82;2.92;;;9.90;97.10;;;;;;5074565;28;20043;-74
2022/02/16 08:32:59;;;;;;;3.63;2.15;;;10.00;97.20;;;;;;5074377;28;20070;-74
2022/02/16 08:35:26;;;;;;;6.28;3.25;;;10.00;97.20;;;;;;5093128;28;20092;-74
2022/02/16 08:37:52;;;;;;;4.40;2.70;;;10.00;97.20;;;;;;5036667;28;20054;-74
2022/02/16 08:40:18;;;;;;;5.43;2.90;;;10.10;97.20;;;;;;5059184;28;20078;-74
2022/02/16 08:42:43;;;;;;;5.15;2.85;;;10.10;97.30;;;;;;5044236;28;20082;-74
2022/02/16 08:45:10;;;;;;;3.45;2.58;;;10.10;97.30;;;;;;5076848;28;20047;-76
2022/02/16 08:47:35;;;;;;;4.75;2.70;;;10.20;97.30;;;;;;5077224;28;20060;-73
2022/02/16 08:50:01;;;;;;;4.22;3.03;;;10.20;97.30;;;;;;5070187;28;20061;-77
2022/02/16 08:52:27;;;;;;;4.30;2.97;;;10.20;97.40;;;;;;5057983;28;20130;-76
2022/02/16 08:54:52;;;;;;;4.00;2.67;;;10.30;97.40;;;;;;5058829;28;20047;-76
2022/02/16 08:57:21;;;;;;;4.93;3.65;;;10.30;97.40;;;;;;5055380;28;20093;-73
2022/02/16 08:59:47;;;;;;;4.95;3.70;;;10.30;97.40;;;;;;5053166;28;20513;-81
2022/02/16 09:02:13;;;;;;;4.60;3.42;;;10.40;97.50;;;;;;5075504;28;20043;-75
2022/02/16 09:04:39;;;;;;;4.32;3.33;;;10.40;97.50;;;;;;5070431;28;20491;-76
2022/02/16 09:09:49;;;;;;;3.97;3.45;;;10.40;97.50;;;;;;5076029;28;20051;-78
2022/02/16 09:12:14;;;;;;;5.20;4.07;;;10.50;97.50;;;;;;5091624;28;20050;-75
2022/02/16 09:14:40;;;;;;;5.55;3.95;;;10.50;97.50;;;;;;5045029;28;20442;-74
2022/02/16 09:17:06;;;;;;;5.47;3.95;;;10.50;97.50;;;;;;5067150;28;20050;-77
2022/02/16 09:19:35;;;;;;;5.85;4.78;;;10.50;97.50;;;;;;5092615;28;20044;-72
2022/02/16 09:22:01;;;;;;;6.40;5.25;;;10.50;97.60;;;;;;5090582;28;20043;-72
2022/02/16 09:24:27;;;;;;;6.43;5.45;;;10.60;97.60;;;;;;5060900;28;20353;-72
2022/02/16 09:26:53;;;;;;;9.65;6.20;;;10.60;97.60;;;;;;5091270;28;20070;-77
2022/02/16 09:29:19;;;;;;;8.95;6.22;;;10.60;97.70;;;;;;5049460;28;20086;-73
2022/02/16 09:31:45;;;;;;;7.80;6.85;;;10.60;97.70;;;;;;5056527;28;20458;-73
2022/02/16 09:34:10;;;;;;;8.77;7.80;;;10.60;97.60;;;;;;5073829;28;20143;-74
2022/02/16 09:36:36;;;;;;;9.30;7.57;;;10.70;97.70;;;;;;5057198;28;20058;-73
2022/02/16 09:39:02;;;;;;;10.63;7.63;;;10.70;97.70;;;;;;5071615;28;20047;-73
2022/02/16 09:41:29;;;;;;;10.43;8.73;;;10.70;97.70;;;;;;5039582;28;20040;-72
2022/02/16 09:43:55;;;;;;;9.75;8.75;;;10.80;97.70;;;;;;5032357;28;20127;-82
2022/02/16 09:46:21;;;;;;;11.20;9.32;;;10.80;97.70;;;;;;5081194;28;20122;-76
2022/02/16 09:48:49;;;;;;;11.55;10.13;;;10.80;97.80;;;;;;5057429;28;20408;-74
2022/02/16 09:51:14;;;;;;;11.52;9.45;;;10.90;97.80;;;;;;5061390;28;20040;-74
2022/02/16 09:53:40;;;;;;;13.30;9.52;;;10.90;97.70;;;;;;5087861;28;20054;-73
2022/02/16 09:56:06;;;;;;;12.15;9.30;;;11.00;97.80;;;;;;5047515;28;20039;-74
2022/02/16 09:58:34;;;;;;;13.88;9.43;;;11.00;97.70;;;;;;5069424;28;20055;-75
2022/02/16 10:01:04;;;;;;;10.38;9.00;;;11.10;97.70;;;;;;5064956;28;20048;-74
2022/02/16 10:03:30;;;;;;;16.25;9.93;;;11.10;97.70;;;;;;5057327;28;20051;-74
2022/02/16 10:05:55;;;;;;;13.88;8.77;;;11.20;97.70;;;;;;5091307;28;20411;-75
2022/02/16 10:08:42;;;;;;;12.15;8.60;;;11.20;97.70;;;;;;5070633;28;20225;-75
2022/02/16 10:11:08;;;;;;;14.68;9.05;;;11.30;97.70;;;;;;5057632;28;20180;-76
2022/02/16 10:13:34;;;;;;;16.88;8.35;;;11.30;97.60;;;;;;5052957;28;20550;-76
2022/02/16 10:16:00;;;;;;;14.27;9.07;;;11.40;97.60;;;;;;5054357;28;20036;-75
2022/02/16 10:18:26;;;;;;;12.15;8.02;;;11.40;97.50;;;;;;5069079;28;20503;-74
2022/02/16 10:21:05;;;;;;;15.25;8.40;;;11.50;97.50;;;;;;5050578;28;20052;-73
2022/02/16 10:23:45;;;;;;;16.27;6.97;;;11.50;97.60;;;;;;5107808;28;20048;-76
2022/02/16 10:26:11;;;;;;;11.38;7.13;;;11.70;97.50;;;;;;5054124;28;20054;-75
2022/02/16 10:28:41;;;;;;;15.38;6.18;;;11.80;97.30;;;;;;5054538;28;20069;-75
2022/02/16 10:31:07;;;;;;;12.73;6.93;;;11.80;97.20;;;;;;5053105;28;20079;-74
2022/02/16 10:33:44;;;;;;;13.82;6.57;;;11.80;97.10;;;;;;5068453;28;20177;-75
2022/02/16 10:36:14;;;;;;;13.70;6.72;;;11.90;97.10;;;;;;5073804;28;20043;-76
2022/02/16 10:38:55;;;;;;;13.93;7.07;;;11.80;97.10;;;;;;5072511;28;20032;-73
2022/02/16 10:41:22;;;;;;;18.43;7.37;;;11.90;97.10;;;;;;5072362;28;20082;-73
2022/02/16 10:43:48;;;;;;;15.90;7.35;;;11.90;97.20;;;;;;5056562;28;20278;-75
2022/02/16 10:46:23;;;;;;;15.45;6.95;;;11.90;97.10;;;;;;5065431;28;20058;-73
2022/02/16 10:49:08;;;;;;;14.45;6.22;;;12.00;97.10;;;;;;5067302;28;20075;-73
2022/02/16 10:51:33;;;;;;;14.95;6.55;;;12.00;97.00;;;;;;5042065;28;20146;-74
2022/02/16 10:54:12;;;;;;;15.02;6.10;;;12.10;96.90;;;;;;5080817;28;20123;-73
2022/02/16 10:56:41;;;;;;;16.08;6.22;;;12.10;96.90;;;;;;5097983;28;20047;-73
2022/02/16 10:59:07;;;;;;;14.23;6.35;;;12.20;96.80;;;;;;5064393;28;20050;-73
2022/02/16 11:01:34;;;;;;;12.40;6.13;;;12.20;96.80;;;;;;5047816;28;20039;-74
2022/02/16 11:03:59;;;;;;;14.77;7.22;;;12.20;96.70;;;;;;5064537;28;20051;-73
2022/02/16 11:06:25;;;;;;;17.92;7.15;;;12.20;96.70;;;;;;5097099;28;20047;-73
2022/02/16 11:08:51;;;;;;;15.93;7.40;;;12.30;96.70;;;;;;5098024;28;20102;-73
2022/02/16 11:11:16;;;;;;;15.18;5.95;;;12.30;96.70;;;;;;5063645;28;20040;-73
2022/02/16 11:13:42;;;;;;;13.32;5.70;;;12.40;96.60;;;;;;5097635;28;20043;-73
2022/02/16 11:16:08;;;;;;;14.05;6.97;;;12.40;96.60;;;;;;5063772;28;20088;-74
2022/02/16 11:18:50;;;;;;;14.57;4.82;;;12.50;96.50;;;;;;5063877;28;20039;-73
2022/02/16 11:21:22;;;;;;;;;;;12.50;96.50;;;;;;5064104;28;20176;-73
2022/02/16 11:23:49;;;;;;;14.20;5.13;;;12.60;96.30;;;;;;5080580;28;19926;-73
2022/02/16 11:26:27;;;;;;;11.52;4.53;;;12.60;96.30;;;;;;5063314;28;20044;-74
2022/02/16 11:28:53;;;;;;;15.10;4.97;;;12.70;96.20;;;;;;5080415;28;20058;-73
2022/02/16 11:31:29;;;;;;;11.30;4.10;;;12.80;96.10;;;;;;5063425;28;20040;-73
2022/02/16 11:34:10;;;;;;;15.57;5.70;;;12.80;96.00;;;;;;5047320;28;20046;-73
2022/02/16 11:36:49;;;;;;;16.70;4.65;;;12.90;95.90;;;;;;5097260;28;20069;-73
2022/02/16 11:39:43;;;;;;;17.17;4.35;;;13.00;95.90;;;;;;5080460;28;20047;-73
2022/02/16 11:42:11;;;;;;;11.18;3.42;;;13.10;95.70;;;;;;5080114;28;20134;-74
2022/02/16 11:44:52;;;;;;;17.33;4.28;;;13.10;95.60;;;;;;5079597;28;20074;-73
2022/02/16 11:47:39;;;;;;;14.38;4.45;;;13.20;95.30;;;;;;5096652;28;20433;-73
2022/02/16 11:50:14;;;;;;;14.70;3.72;;;13.30;95.20;;;;;;5080211;28;20055;-73
2022/02/16 11:52:44;;;;;;;8.27;3.30;;;13.30;95.20;;;;;;5096604;28;20070;-73
2022/02/16 11:55:28;;;;;;;15.70;4.38;;;13.30;95.20;;;;;;5063107;28;20118;-76
2022/02/16 11:58:04;;;;;;;14.90;4.50;;;13.30;95.10;;;;;;5063241;28;20065;-73
2022/02/16 12:00:36;;;;;;;16.63;4.90;;;13.30;95.10;;;;;;5096263;28;20043;-73
2022/02/16 12:03:04;;;;;;;12.23;4.50;;;13.30;95.10;;;;;;5063518;28;20579;-73
2022/02/16 12:05:58;;;;;;;11.10;4.43;;;13.20;95.10;;;;;;5079307;28;20699;-74
2022/02/16 12:08:25;;;;;;;10.43;3.55;;;13.20;95.00;;;;;;5079086;28;20472;-73
2022/02/16 12:11:04;;;;;;;8.13;3.25;;;13.10;95.10;;;;;;5079799;28;20085;-73
2022/02/16 12:13:44;;;;;;;13.57;3.88;;;13.10;95.10;;;;;;5064281;28;20043;-73
2022/02/16 12:16:12;;;;;;;12.27;3.30;;;13.10;95.10;;;;;;5064053;28;20126;-73
2022/02/16 12:18:39;;;;;;;11.60;3.53;;;13.10;95.10;;;;;;5047000;28;20131;-73
2022/02/16 12:21:05;;;;;;;12.80;3.33;;;13.10;95.00;;;;;;5079416;28;20491;-73
2022/02/16 12:23:35;;;;;;;10.88;2.80;;;13.00;94.90;;;;;;5079106;28;20120;-73
2022/02/16 12:26:11;;;;;;;11.00;2.70;;;13.00;94.90;;;;;;5063235;28;20424;-73
2022/02/16 12:29:04;;;;;;;9.15;2.60;;;13.00;94.70;;;;;;5062864;28;20047;-73
2022/02/16 12:31:32;;;;;;;14.18;2.78;;;13.00;94.60;;;;;;5063892;28;20035;-73
2022/02/16 12:34:05;;;;;;;14.95;2.92;;;12.90;94.70;;;;;;5062739;28;20043;-73
2022/02/16 12:36:32;;;;;;;13.82;4.05;;;12.90;94.60;;;;;;5079226;28;20044;-73
2022/02/16 12:38:59;;;;;;;9.13;2.78;;;12.90;94.60;;;;;;5046120;28;20480;-73
2022/02/16 12:41:24;;;;;;;14.05;3.95;;;12.90;94.60;;;;;;5078361;28;20039;-73
2022/02/16 12:44:00;;;;;;;15.73;3.95;;;12.90;94.90;;;;;;5078893;28;20538;-73